createdAt,value
2017-10-17T00:01:14.590Z,11.73
2017-10-17T00:03:41.992Z,13.33
2017-10-17T00:06:09.390Z,11.40
2017-10-17T00:08:36.791Z,12.10
2017-10-17T00:11:04.201Z,13.10
2017-10-17T00:13:31.616Z,11.80
2017-10-17T00:15:59.010Z,12.90
2017-10-17T00:18:26.410Z,12.20
2017-10-17T00:20:53.868Z,12.93
2017-10-17T00:23:21.254Z,11.80
2017-10-17T00:25:48.663Z,11.47
2017-10-17T00:28:16.147Z,11.00
2017-10-17T00:30:43.538Z,11.47
2017-10-17T00:33:14.605Z,12.10
2017-10-17T00:35:46.412Z,11.20
2017-10-17T00:38:13.855Z,12.83
2017-10-17T00:40:41.303Z,11.07
2017-10-17T00:43:09.615Z,11.60
2017-10-17T00:45:37.038Z,11.63
2017-10-17T00:48:04.446Z,12.40
2017-10-17T00:50:31.831Z,11.80
2017-10-17T00:52:59.236Z,11.90
2017-10-17T00:55:26.635Z,12.87
2017-10-17T00:57:54.127Z,12.07
2017-10-17T01:00:21.533Z,11.80
2017-10-17T01:02:48.922Z,12.80
2017-10-17T01:05:16.326Z,12.40
2017-10-17T01:07:43.738Z,11.00
2017-10-17T01:10:11.204Z,13.40
2017-10-17T01:12:38.595Z,11.63
2017-10-17T01:15:06.011Z,10.87
2017-10-17T01:17:33.423Z,11.57
2017-10-17T01:20:03.583Z,12.40
2017-10-17T01:22:30.982Z,12.50
2017-10-17T01:24:58.387Z,11.90
2017-10-17T01:27:25.779Z,11.80
2017-10-17T01:29:53.183Z,11.53
2017-10-17T01:32:20.663Z,12.70
2017-10-17T01:34:51.438Z,10.93
2017-10-17T01:37:18.835Z,12.17
2017-10-17T01:39:47.643Z,11.87
2017-10-17T01:42:22.466Z,12.23
2017-10-17T01:44:49.865Z,11.53
2017-10-17T01:47:21.819Z,11.80
2017-10-17T01:49:50.974Z,11.83
2017-10-17T01:52:23.331Z,12.03
2017-10-17T01:54:53.071Z,14.33
2017-10-17T01:57:20.464Z,12.03
2017-10-17T01:59:52.510Z,12.83
2017-10-17T02:02:19.919Z,13.53
2017-10-17T02:04:47.318Z,13.73
2017-10-17T02:07:14.757Z,13.30
2017-10-17T02:09:42.926Z,12.60
2017-10-17T02:12:10.338Z,12.57
2017-10-17T02:14:37.744Z,13.10
2017-10-17T02:17:05.135Z,13.90
2017-10-17T02:19:32.535Z,14.00
2017-10-17T02:22:02.690Z,14.27
2017-10-17T02:24:30.126Z,14.27
2017-10-17T02:26:57.521Z,13.30
2017-10-17T02:29:28.346Z,13.40
2017-10-17T02:31:55.758Z,12.88
2017-10-17T02:34:46.883Z,12.87
2017-10-17T02:37:14.287Z,13.40
2017-10-17T02:39:41.678Z,13.03
2017-10-17T02:42:09.087Z,13.97
2017-10-17T02:44:36.475Z,14.00
2017-10-17T02:47:18.763Z,13.77
2017-10-17T02:49:47.070Z,14.03
2017-10-17T02:52:32.159Z,13.90
2017-10-17T02:54:59.555Z,13.90
2017-10-17T02:57:26.970Z,14.40
2017-10-17T02:59:56.983Z,13.47
2017-10-17T03:02:26.389Z,13.67
2017-10-17T03:04:53.787Z,13.40
2017-10-17T03:07:21.187Z,13.90
2017-10-17T03:09:48.587Z,12.80
2017-10-17T03:12:15.990Z,13.20
2017-10-17T03:14:54.163Z,13.73
2017-10-17T03:17:21.558Z,14.40
2017-10-17T03:19:48.950Z,14.60
2017-10-17T03:22:16.383Z,13.83
2017-10-17T03:24:55.414Z,14.40
2017-10-17T03:27:22.828Z,16.67
2017-10-17T03:29:50.215Z,13.10
2017-10-17T03:32:17.707Z,13.43
2017-10-17T03:34:48.031Z,13.87
2017-10-17T03:37:24.002Z,13.80
2017-10-17T03:42:56.966Z,14.00
2017-10-17T03:45:24.431Z,14.70
2017-10-17T03:47:54.534Z,13.87
2017-10-17T03:50:24.458Z,13.27
2017-10-17T03:52:51.869Z,12.80
2017-10-17T03:55:19.267Z,13.97
2017-10-17T03:57:48.436Z,14.20
2017-10-17T04:00:16.401Z,13.77
2017-10-17T04:02:45.092Z,13.93
2017-10-17T04:05:15.856Z,12.90
2017-10-17T04:07:47.185Z,13.30
2017-10-17T04:10:21.038Z,13.43
2017-10-17T04:12:49.903Z,12.80
2017-10-17T04:15:17.290Z,13.37
2017-10-17T04:17:50.227Z,13.30
2017-10-17T04:20:33.167Z,13.80
2017-10-17T04:23:22.129Z,12.60
2017-10-17T04:25:51.986Z,13.40
2017-10-17T04:31:23.874Z,13.80
2017-10-17T04:37:11.758Z,13.50
2017-10-17T04:39:39.154Z,13.67
2017-10-17T04:42:18.358Z,13.43
2017-10-17T04:45:00.606Z,13.87
2017-10-17T04:47:32.531Z,13.33
2017-10-17T04:50:00.828Z,13.70
2017-10-17T04:52:29.879Z,15.33
2017-10-17T04:54:57.958Z,13.37
2017-10-17T04:57:35.251Z,13.80
2017-10-17T05:00:03.223Z,13.20
2017-10-17T05:02:44.242Z,12.83
2017-10-17T05:05:21.377Z,12.80
2017-10-17T05:07:50.580Z,13.63
2017-10-17T05:14:09.268Z,15.80
2017-10-17T05:16:42.629Z,16.00
2017-10-17T05:19:11.764Z,16.23
2017-10-17T05:21:39.164Z,16.03
2017-10-17T05:24:09.395Z,15.20
2017-10-17T05:26:36.821Z,15.37
2017-10-17T05:29:05.803Z,14.97
2017-10-17T05:31:37.563Z,14.90
2017-10-17T05:34:06.457Z,14.73
2017-10-17T05:39:33.163Z,16.43
2017-10-17T05:42:00.571Z,15.30
2017-10-17T05:44:29.590Z,15.30
2017-10-17T05:46:58.369Z,16.07
2017-10-17T05:49:44.242Z,14.30
2017-10-17T05:52:11.647Z,15.00
2017-10-17T05:54:39.119Z,16.83
2017-10-17T05:57:06.522Z,15.90
2017-10-17T05:59:33.918Z,18.10
2017-10-17T06:02:01.340Z,14.90
2017-10-17T06:04:28.730Z,16.13
2017-10-17T06:06:56.127Z,16.43
2017-10-17T06:09:23.883Z,17.20
2017-10-17T06:11:51.282Z,16.80
2017-10-17T06:14:18.687Z,16.53
2017-10-17T06:16:46.095Z,17.23
2017-10-17T06:19:13.498Z,15.43
2017-10-17T06:21:40.914Z,16.80
2017-10-17T06:24:08.315Z,18.53
2017-10-17T06:26:35.706Z,18.03
2017-10-17T06:29:03.115Z,16.40
2017-10-17T06:31:30.518Z,17.30
2017-10-17T06:33:57.914Z,17.27
2017-10-17T06:36:25.311Z,18.97
2017-10-17T06:38:52.719Z,17.33
2017-10-17T06:41:20.106Z,17.20
2017-10-17T06:43:47.508Z,17.00
2017-10-17T06:46:14.899Z,18.00
2017-10-17T06:48:42.303Z,18.30
2017-10-17T06:51:09.702Z,18.83
2017-10-17T06:53:37.107Z,17.90
2017-10-17T06:56:04.499Z,19.03
2017-10-17T06:58:31.897Z,18.87
2017-10-17T07:00:59.306Z,17.53
2017-10-17T07:03:26.724Z,17.60
2017-10-17T07:05:54.116Z,17.67
2017-10-17T07:08:21.663Z,17.40
2017-10-17T07:10:49.094Z,15.80
2017-10-17T07:13:16.475Z,18.20
2017-10-17T07:15:43.870Z,17.33
2017-10-17T07:18:11.266Z,17.50
2017-10-17T07:20:38.672Z,16.77
2017-10-17T07:23:06.066Z,16.70
2017-10-17T07:25:33.467Z,16.90
2017-10-17T07:28:01.226Z,16.80
2017-10-17T07:30:28.631Z,17.58
2017-10-17T07:32:56.027Z,17.70
2017-10-17T07:35:23.431Z,15.70
2017-10-17T07:37:50.818Z,15.50
2017-10-17T07:40:18.227Z,15.23
2017-10-17T07:42:45.617Z,15.17
2017-10-17T07:45:13.022Z,15.47
2017-10-17T07:47:40.415Z,15.77
2017-10-17T07:50:07.836Z,14.73
2017-10-17T07:52:35.233Z,16.00
2017-10-17T07:55:02.675Z,15.50
2017-10-17T07:57:30.063Z,16.67
2017-10-17T07:59:57.493Z,16.50
2017-10-17T08:02:24.876Z,16.90
2017-10-17T08:04:52.270Z,16.43
2017-10-17T08:07:19.667Z,16.50
2017-10-17T08:09:47.058Z,15.67
2017-10-17T08:12:14.461Z,17.43
2017-10-17T08:14:42.006Z,17.50
2017-10-17T08:17:09.398Z,17.87
2017-10-17T08:19:36.795Z,16.97
2017-10-17T08:22:04.374Z,18.37
2017-10-17T08:24:31.771Z,18.23
2017-10-17T08:26:59.187Z,17.33
2017-10-17T08:29:26.579Z,18.00
2017-10-17T08:31:54.031Z,17.20
2017-10-17T08:34:21.443Z,19.53
2017-10-17T08:36:48.846Z,17.43
2017-10-17T08:39:16.339Z,17.90
2017-10-17T08:41:43.958Z,18.93
2017-10-17T08:44:11.367Z,17.40
2017-10-17T08:46:38.767Z,18.27
2017-10-17T08:49:06.166Z,17.37
2017-10-17T08:51:33.843Z,19.10
2017-10-17T08:54:01.242Z,16.50
2017-10-17T08:56:28.635Z,16.93
2017-10-17T08:58:56.127Z,17.13
2017-10-17T09:01:23.519Z,16.50
2017-10-17T09:03:50.919Z,16.00
2017-10-17T09:06:18.315Z,15.80
2017-10-17T09:08:45.831Z,15.13
2017-10-17T09:11:13.290Z,16.57
2017-10-17T09:13:40.704Z,14.63
2017-10-17T09:16:08.090Z,15.77
2017-10-17T09:18:35.500Z,15.27
2017-10-17T09:21:02.916Z,15.73
2017-10-17T09:23:30.319Z,14.87
2017-10-17T09:25:57.715Z,14.60
2017-10-17T09:28:25.200Z,14.20
2017-10-17T09:30:52.578Z,13.63
2017-10-17T09:33:19.984Z,12.33
2017-10-17T09:35:47.384Z,13.80
2017-10-17T09:38:14.779Z,12.70
2017-10-17T09:40:42.178Z,12.53
2017-10-17T09:43:09.573Z,12.00
2017-10-17T09:45:36.979Z,11.97
2017-10-17T09:48:04.374Z,11.60
2017-10-17T09:50:31.786Z,12.37
2017-10-17T09:52:59.257Z,12.20
2017-10-17T09:55:26.658Z,10.43
2017-10-17T09:57:54.050Z,11.50
2017-10-17T10:00:21.515Z,11.50
2017-10-17T10:02:48.911Z,10.03
2017-10-17T10:05:16.307Z,9.50
2017-10-17T10:07:43.694Z,9.77
2017-10-17T10:10:11.091Z,9.83
2017-10-17T10:12:38.478Z,9.67
2017-10-17T10:15:05.886Z,9.97
2017-10-17T10:17:33.283Z,8.63
2017-10-17T10:20:00.748Z,8.07
2017-10-17T10:22:28.135Z,9.77
2017-10-17T10:24:55.585Z,8.70
2017-10-17T10:27:23.031Z,8.87
2017-10-17T10:29:50.427Z,9.00
2017-10-17T10:32:17.823Z,8.83
2017-10-17T10:34:45.224Z,7.97
2017-10-17T10:37:12.614Z,7.07
2017-10-17T10:39:40.142Z,8.00
2017-10-17T10:42:07.542Z,8.00
2017-10-17T10:44:34.933Z,7.53
2017-10-17T10:47:02.331Z,7.50
2017-10-17T10:49:29.737Z,7.30
2017-10-17T10:51:57.119Z,7.13
2017-10-17T10:54:24.511Z,8.00
2017-10-17T10:56:51.912Z,6.20
2017-10-17T10:59:19.303Z,7.70
2017-10-17T11:01:46.706Z,7.20
2017-10-17T11:04:14.095Z,6.97
2017-10-17T11:06:41.494Z,6.43
2017-10-17T11:09:08.885Z,6.23
2017-10-17T11:11:36.283Z,6.50
2017-10-17T11:14:03.686Z,6.43
2017-10-17T11:16:31.078Z,6.30
2017-10-17T11:18:58.472Z,6.70
2017-10-17T11:21:25.959Z,6.43
2017-10-17T11:23:53.342Z,6.40
2017-10-17T11:26:20.747Z,6.60
2017-10-17T11:28:48.152Z,6.27
2017-10-17T11:31:15.544Z,6.67
2017-10-17T11:33:42.931Z,6.80
2017-10-17T11:36:10.331Z,6.53
2017-10-17T11:38:37.723Z,6.70
2017-10-17T11:41:16.863Z,7.40
2017-10-17T11:43:50.111Z,6.57
2017-10-17T11:46:17.550Z,7.37
2017-10-17T11:48:44.936Z,6.30
2017-10-17T11:51:12.427Z,6.20
2017-10-17T11:53:39.830Z,7.33
2017-10-17T11:56:07.219Z,6.90
2017-10-17T11:58:34.608Z,6.87
2017-10-17T12:01:02.012Z,5.90
2017-10-17T12:03:29.387Z,6.30
2017-10-17T12:05:56.880Z,6.93
2017-10-17T12:08:24.270Z,7.63
2017-10-17T12:10:51.674Z,7.00
2017-10-17T12:13:19.075Z,6.20
2017-10-17T12:15:46.475Z,6.20
2017-10-17T12:18:13.880Z,6.70
2017-10-17T12:20:41.291Z,7.10
2017-10-17T12:23:08.698Z,7.00
2017-10-17T12:25:36.089Z,6.30
2017-10-17T12:28:03.486Z,7.20
2017-10-17T12:30:30.934Z,6.77
2017-10-17T12:32:58.321Z,5.93
2017-10-17T12:35:25.712Z,5.43
2017-10-17T12:37:53.107Z,5.97
2017-10-17T12:40:20.499Z,6.00
2017-10-17T12:42:47.892Z,6.13
2017-10-17T12:45:15.297Z,5.73
2017-10-17T12:47:42.720Z,5.33
2017-10-17T12:50:10.106Z,5.37
2017-10-17T12:52:37.512Z,5.60
2017-10-17T12:55:04.910Z,5.87
2017-10-17T12:57:32.310Z,5.83
2017-10-17T12:59:59.690Z,5.10
2017-10-17T13:02:27.158Z,6.07
2017-10-17T13:04:54.541Z,5.00
2017-10-17T13:07:21.944Z,5.10
2017-10-17T13:09:49.435Z,4.90
2017-10-17T13:12:16.883Z,5.40
2017-10-17T13:14:44.279Z,5.10
2017-10-17T13:17:11.663Z,5.73
2017-10-17T13:19:39.066Z,4.70
2017-10-17T13:22:06.451Z,5.10
2017-10-17T13:24:33.915Z,4.60
2017-10-17T13:27:01.306Z,5.23
2017-10-17T13:29:28.699Z,5.43
2017-10-17T13:31:56.134Z,4.87
2017-10-17T13:34:23.535Z,4.70
2017-10-17T13:36:50.927Z,5.70
2017-10-17T13:39:18.331Z,4.50
2017-10-17T13:41:45.711Z,4.80
2017-10-17T13:44:13.119Z,4.90
2017-10-17T13:46:40.502Z,4.50
2017-10-17T13:49:07.925Z,4.90
2017-10-17T13:51:35.314Z,5.10
2017-10-17T13:54:02.738Z,5.23
2017-10-17T13:56:30.126Z,5.10
2017-10-17T13:58:57.519Z,4.60
2017-10-17T14:01:24.920Z,4.80
2017-10-17T14:03:52.307Z,6.67
2017-10-17T14:06:19.698Z,5.00
2017-10-17T14:08:47.128Z,5.77
2017-10-17T14:11:14.519Z,4.87
2017-10-17T14:13:41.919Z,4.53
2017-10-17T14:16:09.311Z,5.60
2017-10-17T14:18:36.708Z,5.10
2017-10-17T14:21:04.107Z,5.90
2017-10-17T14:23:31.721Z,4.80
2017-10-17T14:25:59.250Z,5.73
2017-10-17T14:28:26.651Z,4.70
2017-10-17T14:30:54.048Z,5.37
2017-10-17T14:33:21.434Z,8.43
2017-10-17T14:35:48.836Z,6.20
2017-10-17T14:38:16.229Z,5.17
2017-10-17T14:40:43.623Z,6.43
2017-10-17T14:43:11.006Z,6.00
2017-10-17T14:45:38.419Z,6.23
2017-10-17T14:48:05.798Z,6.17
2017-10-17T14:50:33.215Z,5.63
2017-10-17T14:53:00.602Z,7.57
2017-10-17T14:55:27.987Z,7.13
2017-10-17T14:57:55.393Z,6.73
2017-10-17T15:00:22.771Z,6.53
2017-10-17T15:02:50.175Z,6.33
2017-10-17T15:05:17.558Z,8.30
2017-10-17T15:07:44.954Z,6.73
2017-10-17T15:10:12.337Z,6.47
2017-10-17T15:12:39.736Z,7.33
2017-10-17T15:15:07.120Z,7.60
2017-10-17T15:17:34.543Z,6.90
2017-10-17T15:20:01.932Z,6.50
2017-10-17T15:22:29.323Z,9.70
2017-10-17T15:24:56.714Z,7.00
2017-10-17T15:27:24.111Z,7.37
2017-10-17T15:29:51.510Z,8.00
2017-10-17T15:32:18.899Z,7.23
2017-10-17T15:34:46.295Z,7.93
2017-10-17T15:37:13.782Z,5.90
2017-10-17T15:39:41.179Z,8.40
2017-10-17T15:42:08.587Z,10.60
2017-10-17T15:44:35.974Z,11.30
2017-10-17T15:47:03.375Z,7.90
2017-10-17T15:49:30.790Z,7.57
2017-10-17T15:51:58.190Z,8.90
2017-10-17T15:54:26.229Z,6.23
2017-10-17T15:56:53.613Z,6.60
2017-10-17T15:59:20.999Z,5.57
2017-10-17T16:01:48.390Z,6.07
2017-10-17T16:04:15.782Z,5.70
2017-10-17T16:06:43.173Z,6.13
2017-10-17T16:09:10.562Z,5.97
2017-10-17T16:11:37.955Z,6.00
2017-10-17T16:14:05.358Z,8.03
2017-10-17T16:16:32.786Z,6.27
2017-10-17T16:19:00.183Z,5.17
2017-10-17T16:21:27.608Z,6.10
2017-10-17T16:23:55.012Z,6.23
2017-10-17T16:26:22.395Z,7.50
2017-10-17T16:28:49.903Z,6.07
2017-10-17T16:31:17.301Z,6.67
2017-10-17T16:33:44.688Z,8.20
2017-10-17T16:36:12.147Z,7.20
2017-10-17T16:38:39.549Z,6.47
2017-10-17T16:41:06.947Z,6.93
2017-10-17T16:43:34.339Z,7.37
2017-10-17T16:46:01.791Z,6.43
2017-10-17T16:48:29.185Z,6.63
2017-10-17T16:50:56.578Z,8.07
2017-10-17T16:53:24.034Z,7.00
2017-10-17T16:55:51.430Z,6.60
2017-10-17T16:58:18.815Z,6.67
2017-10-17T17:00:46.215Z,7.57
2017-10-17T17:03:13.603Z,6.40
2017-10-17T17:05:41.063Z,7.10
2017-10-17T17:08:08.447Z,6.70
2017-10-17T17:10:35.859Z,8.77
2017-10-17T17:13:03.258Z,9.07
2017-10-17T17:15:30.668Z,6.90
2017-10-17T17:17:58.072Z,7.37
2017-10-17T17:20:25.467Z,8.10
2017-10-17T17:22:52.855Z,9.03
2017-10-17T17:25:20.246Z,8.50
2017-10-17T17:27:47.647Z,7.33
2017-10-17T17:30:15.038Z,6.47
2017-10-17T17:32:42.452Z,6.50
2017-10-17T17:35:09.846Z,6.37
2017-10-17T17:37:37.244Z,6.70
2017-10-17T17:40:04.639Z,6.57
2017-10-17T17:42:32.030Z,6.33
2017-10-17T17:44:59.439Z,6.40
2017-10-17T17:47:26.823Z,7.07
2017-10-17T17:49:54.243Z,7.30
2017-10-17T17:52:21.626Z,7.97
2017-10-17T17:54:49.023Z,8.83
2017-10-17T17:57:16.422Z,8.50
2017-10-17T17:59:43.807Z,12.00
2017-10-17T18:02:11.216Z,9.30
2017-10-17T18:04:38.611Z,9.50
2017-10-17T18:07:05.994Z,9.57
2017-10-17T18:09:33.398Z,11.03
2017-10-17T18:12:00.802Z,10.60
2017-10-17T18:14:28.198Z,10.40
2017-10-17T18:16:55.594Z,12.77
2017-10-17T18:19:22.994Z,13.03
2017-10-17T18:21:50.387Z,12.80
2017-10-17T18:24:17.783Z,13.90
2017-10-17T18:26:45.187Z,15.10
2017-10-17T18:29:12.595Z,15.53
2017-10-17T18:31:40.007Z,14.10
2017-10-17T18:34:07.398Z,16.17
2017-10-17T18:36:34.799Z,16.47
2017-10-17T18:39:02.195Z,18.03
2017-10-17T18:41:29.587Z,17.03
2017-10-17T18:43:56.990Z,18.80
2017-10-17T18:46:24.379Z,19.67
2017-10-17T18:48:51.782Z,21.03
2017-10-17T18:51:19.186Z,21.07
2017-10-17T18:53:46.582Z,21.20
2017-10-17T18:56:13.974Z,23.03
2017-10-17T18:58:41.391Z,22.80
2017-10-17T19:01:08.785Z,24.17
2017-10-17T19:03:36.218Z,22.03
2017-10-17T19:06:03.606Z,25.80
2017-10-17T19:08:31.014Z,24.43
2017-10-17T19:10:58.411Z,24.70
2017-10-17T19:13:25.816Z,25.40
2017-10-17T19:15:53.208Z,28.57
2017-10-17T19:18:20.602Z,25.77
2017-10-17T19:20:48.018Z,27.90
2017-10-17T19:23:15.538Z,25.80
2017-10-17T19:25:42.938Z,28.30
2017-10-17T19:28:10.326Z,28.77
2017-10-17T19:30:37.741Z,28.43
2017-10-17T19:33:05.152Z,29.70
2017-10-17T19:35:32.551Z,28.30
2017-10-17T19:37:59.966Z,29.57
2017-10-17T19:40:27.356Z,29.23
2017-10-17T19:42:54.751Z,31.10
2017-10-17T19:45:22.153Z,31.40
2017-10-17T19:47:49.551Z,32.70
2017-10-17T19:50:16.951Z,31.87
2017-10-17T19:52:44.339Z,31.87
2017-10-17T19:55:11.739Z,33.37
2017-10-17T19:57:39.143Z,33.20
2017-10-17T20:00:06.548Z,35.63
2017-10-17T20:02:33.947Z,37.20
2017-10-17T20:05:01.347Z,32.77
2017-10-17T20:07:28.738Z,33.37
2017-10-17T20:09:56.154Z,31.00
2017-10-17T20:12:23.531Z,30.40
2017-10-17T20:14:50.925Z,28.13
2017-10-17T20:17:18.327Z,28.20
2017-10-17T20:19:45.812Z,26.40
2017-10-17T20:22:13.203Z,28.80
2017-10-17T20:24:40.627Z,24.83
2017-10-17T20:27:08.018Z,24.07
2017-10-17T20:29:35.410Z,24.43
2017-10-17T20:32:02.824Z,27.35
2017-10-17T20:34:30.226Z,23.63
2017-10-17T20:36:57.622Z,26.53
2017-10-17T20:39:25.047Z,26.47
2017-10-17T20:41:52.446Z,23.27
2017-10-17T20:44:19.834Z,24.93
2017-10-17T20:46:47.284Z,26.67
2017-10-17T20:49:14.681Z,26.23
2017-10-17T20:51:42.095Z,27.60
2017-10-17T20:54:09.476Z,25.87
2017-10-17T20:56:36.875Z,24.80
2017-10-17T20:59:04.278Z,24.43
2017-10-17T21:01:31.687Z,21.20
2017-10-17T21:03:59.108Z,23.07
2017-10-17T21:06:26.518Z,18.40
2017-10-17T21:08:53.916Z,19.20
2017-10-17T21:11:21.314Z,18.90
2017-10-17T21:13:48.734Z,18.87
2017-10-17T21:16:16.129Z,18.03
2017-10-17T21:18:44.498Z,18.33
2017-10-17T21:21:11.915Z,18.03
2017-10-17T21:23:39.321Z,19.90
2017-10-17T21:26:06.706Z,20.70
2017-10-17T21:28:34.112Z,19.57
2017-10-17T21:31:01.510Z,19.13
2017-10-17T21:33:28.912Z,19.60
2017-10-17T21:35:56.307Z,19.60
2017-10-17T21:38:23.719Z,19.43
2017-10-17T21:40:51.102Z,18.60
2017-10-17T21:43:18.519Z,18.33
2017-10-17T21:45:45.950Z,17.57
2017-10-17T21:48:13.354Z,17.60
2017-10-17T21:50:40.757Z,20.40
2017-10-17T21:53:08.230Z,17.23
2017-10-17T21:55:35.622Z,17.57
2017-10-17T21:58:03.019Z,18.20
2017-10-17T22:00:42.183Z,18.13
2017-10-17T22:03:09.579Z,18.47
2017-10-17T22:05:36.970Z,15.57
2017-10-17T22:08:04.370Z,16.57
2017-10-17T22:10:31.758Z,15.27
2017-10-17T22:12:59.154Z,16.67
2017-10-17T22:15:26.542Z,16.20
2017-10-17T22:17:53.947Z,15.67
2017-10-17T22:20:21.338Z,17.00
2017-10-17T22:22:48.735Z,14.73
2017-10-17T22:25:16.132Z,15.27
2017-10-17T22:27:43.526Z,15.80
2017-10-17T22:30:10.945Z,19.00
2017-10-17T22:32:38.339Z,15.83
2017-10-17T22:35:05.734Z,16.27
2017-10-17T22:37:33.140Z,16.20
2017-10-17T22:40:05.042Z,18.00
2017-10-17T22:42:32.444Z,18.83
2017-10-17T22:44:59.895Z,19.47
2017-10-17T22:47:27.383Z,21.07
2017-10-17T22:49:54.754Z,24.83
2017-10-17T22:52:22.159Z,22.83
2017-10-17T22:54:49.578Z,29.30
2017-10-17T22:57:16.974Z,25.67
2017-10-17T22:59:44.369Z,26.00
2017-10-17T23:02:11.787Z,25.10
2017-10-17T23:04:39.178Z,25.93
2017-10-17T23:07:06.593Z,25.67
2017-10-17T23:09:34.096Z,24.20
2017-10-17T23:12:01.559Z,23.40
2017-10-17T23:14:28.978Z,22.70
2017-10-17T23:17:08.190Z,23.70
2017-10-17T23:19:47.347Z,24.17
2017-10-17T23:22:14.767Z,24.13
2017-10-17T23:24:42.178Z,21.27
2017-10-17T23:27:09.833Z,18.90
2017-10-17T23:29:37.239Z,19.23
2017-10-17T23:32:04.646Z,19.90
2017-10-17T23:34:32.043Z,20.70
2017-10-17T23:36:59.438Z,20.67
2017-10-17T23:39:26.839Z,21.03
2017-10-17T23:41:54.230Z,19.80
2017-10-17T23:44:21.629Z,19.00
2017-10-17T23:46:49.027Z,21.00
2017-10-17T23:49:16.428Z,16.93
2017-10-17T23:51:43.824Z,16.50
2017-10-17T23:54:11.227Z,16.87
2017-10-17T23:56:38.623Z,19.63
2017-10-17T23:59:06.019Z,16.13
